createdAt,value
2023-05-12T00:01:58.511Z,101163.13
2023-05-12T00:04:44.477Z,101164.81
2023-05-12T00:07:30.930Z,101170.00
2023-05-12T00:10:17.377Z,101163.78
2023-05-12T00:13:04.972Z,101170.88
2023-05-12T00:15:51.543Z,101172.09
2023-05-12T00:18:37.403Z,101175.41
2023-05-12T00:21:23.222Z,101172.09
2023-05-12T00:24:09.611Z,101174.53
2023-05-12T00:26:55.485Z,101176.69
2023-05-12T00:29:42.644Z,101179.56
2023-05-12T00:32:28.636Z,101175.16
2023-05-12T00:35:15.958Z,101173.28
2023-05-12T00:38:01.668Z,101169.50
2023-05-12T00:40:47.559Z,101171.19
2023-05-12T00:43:34.156Z,101174.13
2023-05-12T00:46:21.915Z,101167.63
2023-05-12T00:49:08.286Z,101167.41
2023-05-12T00:51:55.283Z,101172.59
2023-05-12T00:54:42.974Z,101182.78
2023-05-12T00:57:29.851Z,101183.59
2023-05-12T01:00:16.594Z,101186.28
2023-05-12T01:03:06.424Z,101190.63
2023-05-12T01:05:57.821Z,101192.94
2023-05-12T01:08:44.248Z,101192.31
2023-05-12T01:11:30.740Z,101194.00
2023-05-12T01:14:16.616Z,101195.03
2023-05-12T01:17:04.507Z,101188.53
2023-05-12T01:19:54.871Z,101185.63
2023-05-12T01:22:41.595Z,101185.22
2023-05-12T01:25:32.329Z,101188.00
2023-05-12T01:28:22.343Z,101194.81
2023-05-12T01:31:10.220Z,101190.28
2023-05-12T01:33:58.202Z,101188.44
2023-05-12T01:36:44.667Z,101186.72
2023-05-12T01:39:30.875Z,101198.97
2023-05-12T01:42:17.323Z,101197.97
2023-05-12T01:45:05.112Z,101199.81
2023-05-12T01:47:51.523Z,101198.56
2023-05-12T01:50:37.838Z,101197.09
2023-05-12T01:53:27.704Z,101199.81
2023-05-12T01:56:13.516Z,101205.03
2023-05-12T01:58:59.743Z,101198.56
2023-05-12T02:01:47.004Z,101200.22
2023-05-12T02:04:38.267Z,101203.75
2023-05-12T02:07:24.022Z,101201.47
2023-05-12T02:10:10.628Z,101203.97
2023-05-12T02:12:56.784Z,101215.25
2023-05-12T02:15:43.338Z,101208.16
2023-05-12T02:18:31.150Z,101208.16
2023-05-12T02:21:17.569Z,101210.63
2023-05-12T02:24:03.395Z,101217.69
2023-05-12T02:26:50.744Z,101221.63
2023-05-12T02:29:37.941Z,101214.44
2023-05-12T02:32:28.003Z,101211.13
2023-05-12T02:35:15.689Z,101212.13
2023-05-12T02:38:01.772Z,101218.19
2023-05-12T02:40:47.965Z,101216.09
2023-05-12T02:43:34.503Z,101223.34
2023-05-12T02:46:20.546Z,101210.47
2023-05-12T02:49:06.820Z,101214.63
2023-05-12T02:51:55.076Z,101209.03
2023-05-12T02:54:41.206Z,101207.78
2023-05-12T02:57:32.833Z,101210.25
2023-05-12T03:00:19.424Z,101208.63
2023-05-12T03:03:06.072Z,101210.06
2023-05-12T03:05:53.365Z,101209.84
2023-05-12T03:08:40.803Z,101203.03
2023-05-12T03:11:27.354Z,101204.69
2023-05-12T03:14:13.252Z,101203.22
2023-05-12T03:17:00.065Z,101206.94
2023-05-12T03:19:46.248Z,101209.47
2023-05-12T03:22:32.453Z,101210.75
2023-05-12T03:25:19.959Z,101204.91
2023-05-12T03:28:06.296Z,101215.50
2023-05-12T03:30:52.215Z,101204.50
2023-05-12T03:33:38.068Z,101199.50
2023-05-12T03:36:24.150Z,101217.63
2023-05-12T03:39:10.523Z,101216.16
2023-05-12T03:41:57.657Z,101214.09
2023-05-12T03:44:43.832Z,101205.75
2023-05-12T03:47:30.335Z,101211.59
2023-05-12T03:50:16.683Z,101226.34
2023-05-12T03:53:03.455Z,101224.28
2023-05-12T03:55:49.313Z,101224.88
2023-05-12T03:58:36.493Z,101228.63
2023-05-12T04:01:22.598Z,101221.97
2023-05-12T04:04:08.696Z,101221.13
2023-05-12T04:06:56.208Z,101231.31
2023-05-12T04:09:43.894Z,101225.31
2023-05-12T04:12:29.793Z,101226.13
2023-05-12T04:15:17.575Z,101230.91
2023-05-12T04:18:03.310Z,101238.19
2023-05-12T04:20:49.204Z,101243.59
2023-05-12T04:23:35.083Z,101241.94
2023-05-12T04:26:21.993Z,101239.59
2023-05-12T04:29:08.361Z,101260.47
2023-05-12T04:31:57.164Z,101253.97
2023-05-12T04:34:43.556Z,101262.88
2023-05-12T04:37:29.943Z,101271.84
2023-05-12T04:40:16.652Z,101276.66
2023-05-12T04:43:03.040Z,101283.97
2023-05-12T04:45:51.432Z,101285.00
2023-05-12T04:48:41.859Z,101287.47
2023-05-12T04:51:27.968Z,101279.78
2023-05-12T04:54:13.846Z,101278.53
2023-05-12T04:57:00.391Z,101271.63
2023-05-12T04:59:46.187Z,101288.91
2023-05-12T05:02:33.075Z,101289.72
2023-05-12T05:05:21.235Z,101294.69
2023-05-12T05:08:07.679Z,101307.06
2023-05-12T05:10:54.304Z,101303.84
2023-05-12T05:13:40.799Z,101298.84
2023-05-12T05:16:28.221Z,101306.34
2023-05-12T05:19:24.777Z,101307.59
2023-05-12T05:22:22.968Z,101315.25
2023-05-12T05:25:10.206Z,101318.63
2023-05-12T05:27:56.608Z,101316.91
2023-05-12T05:30:42.419Z,101315.44
2023-05-12T05:33:29.282Z,101315.66
2023-05-12T05:36:16.373Z,101319.34
2023-05-12T05:39:04.746Z,101319.16
2023-05-12T05:41:50.588Z,101317.06
2023-05-12T05:44:36.531Z,101326.84
2023-05-12T05:47:24.602Z,101334.63
2023-05-12T05:50:11.395Z,101328.81
2023-05-12T05:53:00.250Z,101336.09
2023-05-12T05:55:48.719Z,101340.06
2023-05-12T05:58:35.310Z,101330.25
2023-05-12T06:01:23.008Z,101327.94
2023-05-12T06:04:08.966Z,101334.00
2023-05-12T06:06:55.261Z,101333.75
2023-05-12T06:09:41.238Z,101342.88
2023-05-12T06:12:28.274Z,101350.13
2023-05-12T06:15:14.404Z,101352.41
2023-05-12T06:18:00.589Z,101347.97
2023-05-12T06:20:46.315Z,101349.19
2023-05-12T06:23:32.415Z,101353.53
2023-05-12T06:26:18.599Z,101352.75
2023-05-12T06:29:07.538Z,101350.56
2023-05-12T06:31:53.713Z,101351.72
2023-05-12T06:34:39.809Z,101361.00
2023-05-12T06:37:25.980Z,101367.06
2023-05-12T06:40:12.394Z,101357.19
2023-05-12T06:42:58.685Z,101365.47
2023-05-12T06:45:47.364Z,101363.50
2023-05-12T06:48:33.982Z,101361.69
2023-05-12T06:51:20.276Z,101366.47
2023-05-12T06:54:06.856Z,101355.78
2023-05-12T06:56:53.096Z,101363.44
2023-05-12T06:59:39.135Z,101359.47
2023-05-12T07:02:26.454Z,101362.00
2023-05-12T07:05:12.921Z,101359.00
2023-05-12T07:07:59.347Z,101360.75
2023-05-12T07:10:45.248Z,101359.38
2023-05-12T07:13:31.299Z,101366.59
2023-05-12T07:16:18.150Z,101365.91
2023-05-12T07:19:08.780Z,101366.88
2023-05-12T07:21:54.876Z,101358.25
2023-05-12T07:24:41.575Z,101363.09
2023-05-12T07:27:27.691Z,101366.63
2023-05-12T07:30:14.318Z,101369.63
2023-05-12T07:33:02.084Z,101369.56
2023-05-12T07:35:49.568Z,101365.19
2023-05-12T07:38:35.650Z,101370.00
2023-05-12T07:41:21.748Z,101370.41
2023-05-12T07:44:07.706Z,101368.34
2023-05-12T07:46:54.255Z,101376.97
2023-05-12T07:49:40.495Z,101374.94
2023-05-12T07:52:27.921Z,101372.22
2023-05-12T07:55:14.061Z,101378.31
2023-05-12T07:57:59.975Z,101374.50
2023-05-12T08:00:46.071Z,101372.88
2023-05-12T08:03:32.053Z,101382.56
2023-05-12T08:06:18.670Z,101386.81
2023-05-12T08:09:06.396Z,101385.81
2023-05-12T08:11:52.832Z,101382.53
2023-05-12T08:14:38.992Z,101377.72
2023-05-12T08:17:25.971Z,101377.34
2023-05-12T08:20:13.902Z,101383.78
2023-05-12T08:23:00.181Z,101380.47
2023-05-12T08:25:48.414Z,101379.38
2023-05-12T08:28:34.601Z,101381.38
2023-05-12T08:31:20.882Z,101385.13
2023-05-12T08:34:10.897Z,101387.47
2023-05-12T08:36:57.626Z,101378.13
2023-05-12T08:39:43.821Z,101377.38
2023-05-12T08:42:38.135Z,101383.84
2023-05-12T08:45:24.896Z,101386.84
2023-05-12T08:48:11.801Z,101383.63
2023-05-12T08:50:58.865Z,101376.44
2023-05-12T08:53:45.845Z,101383.72
2023-05-12T08:59:21.781Z,101391.28
2023-05-12T09:02:09.049Z,101386.47
2023-05-12T09:04:55.520Z,101384.97
2023-05-12T09:07:44.662Z,101383.47
2023-05-12T09:10:35.308Z,101382.19
2023-05-12T09:13:30.876Z,101383.94
2023-05-12T09:16:19.976Z,101381.16
2023-05-12T09:19:07.429Z,101383.44
2023-05-12T09:21:53.813Z,101384.72
2023-05-12T09:24:40.977Z,101377.66
2023-05-12T09:27:27.742Z,101377.97
2023-05-12T09:30:14.500Z,101377.34
2023-05-12T09:33:09.158Z,101383.38
2023-05-12T09:35:55.041Z,101376.63
2023-05-12T09:38:41.038Z,101378.47
2023-05-12T09:41:27.269Z,101386.75
2023-05-12T09:44:16.299Z,101387.31
2023-05-12T09:47:06.985Z,101386.53
2023-05-12T09:49:55.079Z,101385.16
2023-05-12T09:52:41.605Z,101382.13
2023-05-12T09:55:27.874Z,101378.38
2023-05-12T09:58:16.286Z,101381.22
2023-05-12T10:03:54.484Z,101384.75
2023-05-12T10:06:43.236Z,101375.19
2023-05-12T10:09:33.890Z,101369.44
2023-05-12T10:12:20.080Z,101376.22
2023-05-12T10:15:07.630Z,101378.06
2023-05-12T10:17:55.261Z,101378.84
2023-05-12T10:20:41.926Z,101376.44
2023-05-12T10:23:29.180Z,101376.94
2023-05-12T10:26:15.338Z,101377.75
2023-05-12T10:29:01.518Z,101376.22
2023-05-12T10:31:47.861Z,101378.78
2023-05-12T10:34:35.020Z,101377.53
2023-05-12T10:37:23.591Z,101382.38
2023-05-12T10:40:11.681Z,101384.31
2023-05-12T10:42:59.941Z,101372.00
2023-05-12T10:45:46.231Z,101375.50
2023-05-12T10:48:32.545Z,101378.69
2023-05-12T10:51:21.965Z,101376.31
2023-05-12T10:54:09.191Z,101379.06
2023-05-12T10:57:00.451Z,101373.59
2023-05-12T10:59:50.688Z,101369.94
2023-05-12T11:02:38.353Z,101373.53
2023-05-12T11:05:34.735Z,101382.78
2023-05-12T11:08:21.662Z,101371.03
2023-05-12T11:11:08.809Z,101382.69
2023-05-12T11:13:56.532Z,101381.06
2023-05-12T11:16:44.203Z,101375.19
2023-05-12T11:19:30.662Z,101376.03
2023-05-12T11:22:18.455Z,101376.66
2023-05-12T11:25:11.341Z,101379.50
2023-05-12T11:27:58.217Z,101378.63
2023-05-12T11:30:54.001Z,101376.28
2023-05-12T11:33:40.863Z,101377.53
2023-05-12T11:36:26.703Z,101390.50
2023-05-12T11:39:17.489Z,101382.16
2023-05-12T11:42:12.864Z,101396.47
2023-05-12T11:45:00.251Z,101401.75
2023-05-12T11:47:47.771Z,101393.59
2023-05-12T11:50:34.056Z,101395.63
2023-05-12T11:53:20.130Z,101387.81
2023-05-12T11:56:06.474Z,101384.78
2023-05-12T11:58:53.998Z,101395.66
2023-05-12T12:01:46.187Z,101387.69
2023-05-12T12:04:40.605Z,101390.97
2023-05-12T12:07:31.057Z,101383.56
2023-05-12T12:10:18.951Z,101382.16
2023-05-12T12:13:05.214Z,101380.97
2023-05-12T12:15:51.882Z,101386.00
2023-05-12T12:18:37.848Z,101381.94
2023-05-12T12:21:26.169Z,101375.56
2023-05-12T12:24:12.656Z,101377.75
2023-05-12T12:26:58.731Z,101385.47
2023-05-12T12:29:44.564Z,101388.13
2023-05-12T12:32:31.187Z,101385.56
2023-05-12T12:35:17.187Z,101378.56
2023-05-12T12:38:04.615Z,101387.53
2023-05-12T12:40:51.406Z,101389.88
2023-05-12T12:43:37.731Z,101395.25
2023-05-12T12:46:23.839Z,101381.81
2023-05-12T12:49:10.246Z,101378.31
2023-05-12T12:51:56.681Z,101382.16
2023-05-12T12:54:43.850Z,101380.19
2023-05-12T12:57:29.746Z,101382.13
2023-05-12T13:00:17.277Z,101377.38
2023-05-12T13:03:03.438Z,101369.13
2023-05-12T13:05:49.673Z,101367.84
2023-05-12T13:08:35.685Z,101364.56
2023-05-12T13:11:22.890Z,101368.63
2023-05-12T13:14:08.923Z,101373.72
2023-05-12T13:16:54.760Z,101366.41
2023-05-12T13:19:40.587Z,101371.38
2023-05-12T13:22:27.440Z,101367.34
2023-05-12T13:25:13.230Z,101369.75
2023-05-12T13:28:00.407Z,101365.94
2023-05-12T13:30:46.549Z,101368.59
2023-05-12T13:33:32.594Z,101367.56
2023-05-12T13:36:18.513Z,101362.28
2023-05-12T13:39:04.534Z,101366.72
2023-05-12T13:41:50.754Z,101358.94
2023-05-12T13:44:38.578Z,101348.25
2023-05-12T13:47:24.541Z,101355.47
2023-05-12T13:50:10.700Z,101354.13
2023-05-12T13:52:56.914Z,101351.63
2023-05-12T13:55:44.460Z,101346.97
2023-05-12T13:58:30.521Z,101361.00
2023-05-12T14:01:17.783Z,101354.94
2023-05-12T14:04:03.888Z,101351.38
2023-05-12T14:06:50.265Z,101351.81
2023-05-12T14:09:36.576Z,101346.09
2023-05-12T14:12:22.375Z,101343.59
2023-05-12T14:15:29.151Z,101349.94
2023-05-12T14:18:17.696Z,101345.22
2023-05-12T14:21:05.642Z,101344.75
2023-05-12T14:23:52.003Z,101346.38
2023-05-12T14:26:37.909Z,101338.91
2023-05-12T14:29:23.741Z,101337.69
2023-05-12T14:32:09.701Z,101346.78
2023-05-12T14:34:57.566Z,101346.53
2023-05-12T14:37:43.817Z,101347.16
2023-05-12T14:40:29.752Z,101342.84
2023-05-12T14:43:15.611Z,101345.81
2023-05-12T14:46:02.205Z,101350.31
2023-05-12T14:48:48.780Z,101357.09
2023-05-12T14:51:36.476Z,101360.16
2023-05-12T14:54:25.561Z,101357.53
2023-05-12T14:57:13.412Z,101366.91
2023-05-12T14:59:59.308Z,101360.91
2023-05-12T15:02:45.995Z,101354.69
2023-05-12T15:05:52.920Z,101349.28
2023-05-12T15:08:40.308Z,101350.19
2023-05-12T15:11:26.794Z,101357.63
2023-05-12T15:14:12.934Z,101348.63
2023-05-12T15:16:59.422Z,101349.41
2023-05-12T15:19:46.218Z,101348.47
2023-05-12T15:22:32.386Z,101360.28
2023-05-12T15:25:19.862Z,101365.88
2023-05-12T15:28:06.004Z,101363.19
2023-05-12T15:30:55.924Z,101357.50
2023-05-12T15:33:42.308Z,101355.34
2023-05-12T15:36:28.151Z,101356.84
2023-05-12T15:39:14.042Z,101350.91
2023-05-12T15:42:01.304Z,101357.28
2023-05-12T15:44:48.017Z,101356.78
2023-05-12T15:47:36.212Z,101346.94
2023-05-12T15:50:22.994Z,101348.88
2023-05-12T15:53:09.349Z,101352.09
2023-05-12T15:56:00.324Z,101358.16
2023-05-12T15:58:47.731Z,101347.44
2023-05-12T16:01:33.778Z,101350.22
2023-05-12T16:04:19.895Z,101344.78
2023-05-12T16:07:06.293Z,101354.06
2023-05-12T16:09:52.589Z,101352.28
2023-05-12T16:12:38.710Z,101355.53
2023-05-12T16:15:25.954Z,101355.34
2023-05-12T16:18:12.043Z,101356.34
2023-05-12T16:20:58.683Z,101365.66
2023-05-12T16:23:44.716Z,101360.88
2023-05-12T16:26:30.970Z,101356.47
2023-05-12T16:29:17.334Z,101357.19
2023-05-12T16:32:05.480Z,101346.78
2023-05-12T16:34:51.731Z,101358.75
2023-05-12T16:37:37.952Z,101358.63
2023-05-12T16:40:24.176Z,101361.44
2023-05-12T16:43:10.327Z,101354.31
2023-05-12T16:46:00.985Z,101358.75
2023-05-12T16:48:48.547Z,101362.31
2023-05-12T16:51:35.536Z,101359.88
2023-05-12T16:54:21.982Z,101358.19
2023-05-12T16:57:08.093Z,101361.03
2023-05-12T16:59:54.213Z,101361.56
2023-05-12T17:02:40.063Z,101360.75
2023-05-12T17:05:27.908Z,101357.59
2023-05-12T17:08:14.064Z,101365.94
2023-05-12T17:11:00.300Z,101359.78
2023-05-12T17:13:46.582Z,101363.28
2023-05-12T17:16:32.846Z,101359.53
2023-05-12T17:19:19.218Z,101363.16
2023-05-12T17:22:07.088Z,101360.34
2023-05-12T17:24:52.883Z,101375.13
2023-05-12T17:27:38.718Z,101374.78
2023-05-12T17:30:25.002Z,101376.09
2023-05-12T17:33:10.946Z,101374.72
2023-05-12T17:36:11.600Z,101380.44
2023-05-12T17:38:59.898Z,101380.16
2023-05-12T17:41:45.889Z,101373.88
2023-05-12T17:44:31.706Z,101381.69
2023-05-12T17:47:17.826Z,101388.50
2023-05-12T17:50:04.163Z,101378.19
2023-05-12T17:52:50.424Z,101385.75
2023-05-12T17:55:38.318Z,101384.25
2023-05-12T17:58:24.430Z,101385.19
2023-05-12T18:01:10.241Z,101380.63
2023-05-12T18:03:56.146Z,101384.16
2023-05-12T18:06:42.141Z,101388.34
2023-05-12T18:09:29.187Z,101384.06
2023-05-12T18:12:17.901Z,101388.34
2023-05-12T18:15:04.421Z,101392.06
2023-05-12T18:17:50.498Z,101394.06
2023-05-12T18:20:36.484Z,101395.47
2023-05-12T18:23:22.456Z,101390.78
2023-05-12T18:26:08.460Z,101402.94
2023-05-12T18:28:55.885Z,101398.13
2023-05-12T18:31:43.990Z,101409.25
2023-05-12T18:34:30.691Z,101410.75
2023-05-12T18:37:17.719Z,101413.03
2023-05-12T18:40:04.837Z,101421.22
2023-05-12T18:42:51.750Z,101415.88
2023-05-12T18:45:39.534Z,101413.41
2023-05-12T18:48:25.522Z,101419.75
2023-05-12T18:51:11.668Z,101426.03
2023-05-12T18:53:58.008Z,101419.19
2023-05-12T18:56:44.204Z,101423.84
2023-05-12T18:59:30.113Z,101423.22
2023-05-12T19:02:17.641Z,101430.75
2023-05-12T19:05:03.610Z,101434.84
2023-05-12T19:07:49.714Z,101432.31
2023-05-12T19:10:37.887Z,101441.09
2023-05-12T19:13:25.501Z,101441.31
2023-05-12T19:16:11.865Z,101449.09
2023-05-12T19:18:59.582Z,101447.78
2023-05-12T19:21:45.638Z,101439.59
2023-05-12T19:24:31.487Z,101443.97
2023-05-12T19:27:17.422Z,101438.31
2023-05-12T19:30:05.037Z,101450.69
2023-05-12T19:32:51.323Z,101451.69
2023-05-12T19:35:39.144Z,101444.91
2023-05-12T19:38:25.309Z,101460.56
2023-05-12T19:41:11.508Z,101452.53
2023-05-12T19:43:57.775Z,101457.91
2023-05-12T19:46:44.501Z,101459.72
2023-05-12T19:49:30.682Z,101465.59
2023-05-12T19:52:18.395Z,101455.06
2023-05-12T19:55:05.002Z,101467.03
2023-05-12T19:57:51.733Z,101466.66
2023-05-12T20:00:39.313Z,101474.81
2023-05-12T20:03:26.005Z,101467.16
2023-05-12T20:06:12.261Z,101475.09
2023-05-12T20:08:59.434Z,101475.13
2023-05-12T20:11:45.559Z,101487.34
2023-05-12T20:14:31.495Z,101474.41
2023-05-12T20:17:17.594Z,101477.34
2023-05-12T20:20:04.219Z,101479.28
2023-05-12T20:22:50.030Z,101490.31
2023-05-12T20:25:37.456Z,101484.91
2023-05-12T20:28:23.950Z,101487.84
2023-05-12T20:31:10.516Z,101484.75
2023-05-12T20:33:57.150Z,101492.03
2023-05-12T20:36:43.962Z,101491.22
2023-05-12T20:39:29.857Z,101494.53
2023-05-12T20:42:17.222Z,101505.38
2023-05-12T20:45:03.154Z,101502.06
2023-05-12T20:47:49.363Z,101499.56
2023-05-12T20:50:35.332Z,101503.91
2023-05-12T20:53:21.430Z,101498.91
2023-05-12T20:56:08.682Z,101498.91
2023-05-12T20:58:57.244Z,101502.84
2023-05-12T21:01:43.053Z,101497.03
2023-05-12T21:04:28.965Z,101504.91
2023-05-12T21:07:14.916Z,101505.75
2023-05-12T21:10:00.879Z,101508.84
2023-05-12T21:12:47.165Z,101513.63
2023-05-12T21:15:34.427Z,101519.19
2023-05-12T21:18:20.544Z,101514.81
2023-05-12T21:21:06.450Z,101524.38
2023-05-12T21:23:52.439Z,101518.09
2023-05-12T21:26:38.977Z,101525.16
2023-05-12T21:29:25.249Z,101526.97
2023-05-12T21:32:12.866Z,101527.13
2023-05-12T21:34:59.139Z,101529.44
2023-05-12T21:37:46.236Z,101530.88
2023-05-12T21:40:32.365Z,101527.97
2023-05-12T21:43:18.251Z,101535.00
2023-05-12T21:46:04.729Z,101534.59
2023-05-12T21:48:52.981Z,101531.06
2023-05-12T21:51:39.170Z,101537.44
2023-05-12T21:54:25.423Z,101532.00
2023-05-12T21:57:11.484Z,101528.81
2023-05-12T21:59:58.791Z,101535.88
2023-05-12T22:02:44.816Z,101540.22
2023-05-12T22:05:32.225Z,101541.78
2023-05-12T22:08:18.476Z,101549.53
2023-05-12T22:11:04.583Z,101547.69
2023-05-12T22:13:50.705Z,101546.63
2023-05-12T22:16:41.836Z,101555.13
2023-05-12T22:19:28.815Z,101554.63
2023-05-12T22:22:16.407Z,101558.75
2023-05-12T22:25:03.612Z,101557.09
2023-05-12T22:27:49.912Z,101560.13
2023-05-12T22:30:36.128Z,101558.41
2023-05-12T22:33:22.031Z,101558.25
2023-05-12T22:36:09.004Z,101564.28
2023-05-12T22:38:56.301Z,101552.97
2023-05-12T22:41:42.380Z,101554.84
2023-05-12T22:44:28.626Z,101559.13
2023-05-12T22:47:14.743Z,101566.19
2023-05-12T22:50:01.258Z,101565.94
2023-05-12T22:52:47.593Z,101562.63
2023-05-12T22:55:34.899Z,101556.97
2023-05-12T22:58:21.072Z,101562.56
2023-05-12T23:01:07.372Z,101568.78
2023-05-12T23:03:53.867Z,101573.34
2023-05-12T23:06:39.961Z,101573.91
2023-05-12T23:09:26.047Z,101573.28
2023-05-12T23:12:13.638Z,101572.19
2023-05-12T23:14:59.903Z,101575.72
2023-05-12T23:17:46.131Z,101573.41
2023-05-12T23:20:32.010Z,101573.78
2023-05-12T23:23:18.095Z,101574.34
2023-05-12T23:26:04.188Z,101580.19
2023-05-12T23:28:51.429Z,101581.16
2023-05-12T23:31:37.555Z,101574.38
2023-05-12T23:34:23.745Z,101575.94
2023-05-12T23:37:09.561Z,101571.75
2023-05-12T23:39:55.782Z,101565.72
2023-05-12T23:42:41.809Z,101574.38
2023-05-12T23:45:28.876Z,101573.25
2023-05-12T23:48:14.877Z,101568.44
2023-05-12T23:51:00.786Z,101570.94
2023-05-12T23:53:46.672Z,101568.72
2023-05-12T23:56:32.629Z,101562.97
2023-05-12T23:59:18.430Z,101562.47
